createdAt,value
2018-04-22T00:00:36.884Z,53.00
2018-04-22T00:03:04.461Z,54.20
2018-04-22T00:05:32.011Z,56.70
2018-04-22T00:07:59.581Z,51.30
2018-04-22T00:10:27.124Z,55.80
2018-04-22T00:12:54.693Z,52.90
2018-04-22T00:15:22.234Z,54.40
2018-04-22T00:17:49.805Z,54.20
2018-04-22T00:20:17.349Z,57.20
2018-04-22T00:22:44.916Z,53.20
2018-04-22T00:25:12.453Z,53.60
2018-04-22T00:27:40.026Z,54.70
2018-04-22T00:30:07.581Z,53.60
2018-04-22T00:32:35.928Z,53.60
2018-04-22T00:35:03.478Z,53.40
2018-04-22T00:37:31.041Z,54.70
2018-04-22T00:39:58.612Z,56.10
2018-04-22T00:42:26.161Z,53.60
2018-04-22T00:44:53.740Z,54.30
2018-04-22T00:47:21.289Z,54.00
2018-04-22T00:49:48.857Z,53.80
2018-04-22T00:52:17.173Z,52.00
2018-04-22T00:54:44.741Z,51.90
2018-04-22T00:57:12.291Z,56.20
2018-04-22T00:59:39.865Z,53.10
2018-04-22T01:02:07.416Z,56.40
2018-04-22T01:04:34.984Z,53.00
2018-04-22T01:07:02.537Z,56.50
2018-04-22T01:09:30.109Z,57.10
2018-04-22T01:11:58.421Z,55.10
2018-04-22T01:14:25.992Z,55.10
2018-04-22T01:16:53.540Z,59.70
2018-04-22T01:19:21.868Z,54.00
2018-04-22T01:21:49.540Z,53.90
2018-04-22T01:24:17.117Z,54.10
2018-04-22T01:26:44.705Z,59.00
2018-04-22T01:29:13.043Z,58.50
2018-04-22T01:31:40.593Z,58.40
2018-04-22T01:34:08.165Z,53.20
2018-04-22T01:36:35.715Z,55.40
2018-04-22T01:39:03.332Z,57.10
2018-04-22T01:41:30.900Z,55.80
2018-04-22T01:43:58.445Z,56.70
2018-04-22T01:46:26.782Z,55.30
2018-04-22T01:48:54.382Z,55.20
2018-04-22T01:51:22.716Z,55.30
2018-04-22T01:53:50.260Z,55.40
2018-04-22T01:56:17.827Z,56.50
2018-04-22T01:58:45.372Z,55.00
2018-04-22T02:01:12.937Z,54.40
2018-04-22T02:03:40.484Z,57.20
2018-04-22T02:06:08.058Z,53.70
2018-04-22T02:08:35.600Z,53.30
2018-04-22T02:11:03.168Z,55.50
2018-04-22T02:13:30.713Z,53.40
2018-04-22T02:15:58.287Z,54.50
2018-04-22T02:18:25.832Z,55.20
2018-04-22T02:20:53.401Z,58.90
2018-04-22T02:23:20.951Z,55.20
2018-04-22T02:25:48.522Z,55.90
2018-04-22T02:28:16.081Z,57.60
2018-04-22T02:30:43.647Z,55.70
2018-04-22T02:33:11.196Z,54.50
2018-04-22T02:35:38.768Z,54.90
2018-04-22T02:38:06.337Z,54.50
2018-04-22T02:40:33.912Z,54.40
2018-04-22T02:43:01.464Z,57.20
2018-04-22T02:45:29.259Z,59.30
2018-04-22T02:47:56.828Z,56.20
2018-04-22T02:50:24.374Z,57.30
2018-04-22T02:52:51.944Z,60.60
2018-04-22T02:55:19.497Z,54.00
2018-04-22T02:57:47.070Z,57.80
2018-04-22T03:00:14.625Z,54.60
2018-04-22T03:02:42.192Z,58.10
2018-04-22T03:05:09.746Z,57.80
2018-04-22T03:07:37.312Z,58.60
2018-04-22T03:10:04.848Z,57.80
2018-04-22T03:12:32.425Z,58.10
2018-04-22T03:14:59.968Z,58.00
2018-04-22T03:17:27.532Z,57.20
2018-04-22T03:19:55.077Z,55.30
2018-04-22T03:22:22.646Z,55.20
2018-04-22T03:24:50.193Z,55.40
2018-04-22T03:27:17.761Z,57.20
2018-04-22T03:29:45.310Z,60.40
2018-04-22T03:32:12.887Z,58.10
2018-04-22T03:34:40.433Z,56.90
2018-04-22T03:37:08.001Z,54.90
2018-04-22T03:39:35.546Z,56.70
2018-04-22T03:42:03.124Z,59.70
2018-04-22T03:44:30.668Z,61.40
2018-04-22T03:46:58.238Z,58.90
2018-04-22T03:49:25.846Z,58.60
2018-04-22T03:51:53.388Z,58.00
2018-04-22T03:54:20.964Z,56.20
2018-04-22T03:56:48.517Z,56.00
2018-04-22T03:59:16.093Z,61.00
2018-04-22T04:01:43.645Z,54.70
2018-04-22T04:04:11.216Z,58.10
2018-04-22T04:06:38.999Z,54.10
2018-04-22T04:09:06.576Z,57.00
2018-04-22T04:11:34.125Z,55.20
2018-04-22T04:14:01.705Z,59.30
2018-04-22T04:16:29.253Z,56.70
2018-04-22T04:19:08.666Z,59.70
2018-04-22T04:21:48.685Z,60.00
2018-04-22T04:24:37.039Z,59.80
2018-04-22T04:27:25.138Z,61.50
2018-04-22T04:29:52.805Z,55.80
2018-04-22T04:32:20.352Z,58.00
2018-04-22T04:34:47.925Z,54.20
2018-04-22T04:37:15.476Z,57.30
2018-04-22T04:39:43.046Z,63.40
2018-04-22T04:42:10.591Z,57.60
2018-04-22T04:44:38.162Z,60.90
2018-04-22T04:47:05.714Z,60.60
2018-04-22T04:49:33.287Z,59.50
2018-04-22T04:52:00.848Z,56.20
2018-04-22T04:54:28.424Z,55.30
2018-04-22T04:56:55.968Z,57.80
2018-04-22T04:59:23.547Z,59.10
2018-04-22T05:01:51.101Z,56.60
2018-04-22T05:04:18.686Z,58.30
2018-04-22T05:06:46.224Z,58.40
2018-04-22T05:09:13.788Z,53.80
2018-04-22T05:11:41.343Z,56.20
2018-04-22T05:14:08.950Z,57.80
2018-04-22T05:16:36.481Z,61.60
2018-04-22T05:19:04.824Z,56.80
2018-04-22T05:21:32.373Z,56.60
2018-04-22T05:24:00.712Z,59.40
2018-04-22T05:26:28.257Z,59.40
2018-04-22T05:28:55.836Z,61.30
2018-04-22T05:31:23.384Z,62.40
2018-04-22T05:33:50.927Z,61.80
2018-04-22T05:36:18.501Z,60.10
2018-04-22T05:38:46.056Z,64.70
2018-04-22T05:41:13.620Z,67.70
2018-04-22T05:43:41.164Z,58.80
2018-04-22T05:46:09.496Z,61.30
2018-04-22T05:48:37.047Z,61.10
2018-04-22T05:51:04.620Z,60.60
2018-04-22T05:53:32.164Z,61.70
2018-04-22T05:55:59.728Z,59.00
2018-04-22T05:58:27.272Z,59.30
2018-04-22T06:00:54.846Z,58.30
2018-04-22T06:03:22.393Z,57.70
2018-04-22T06:05:49.964Z,57.10
2018-04-22T06:08:17.513Z,56.20
2018-04-22T06:10:45.088Z,55.30
2018-04-22T06:13:12.631Z,54.90
2018-04-22T06:15:40.200Z,54.10
2018-04-22T06:18:07.741Z,53.20
2018-04-22T06:20:35.317Z,52.70
2018-04-22T06:23:03.624Z,51.80
2018-04-22T06:25:31.201Z,51.90
2018-04-22T06:27:58.744Z,51.40
2018-04-22T06:30:27.080Z,49.50
2018-04-22T06:32:54.635Z,49.40
2018-04-22T06:35:22.201Z,49.50
2018-04-22T06:37:49.761Z,50.10
2018-04-22T06:40:17.364Z,49.40
2018-04-22T06:42:45.661Z,48.20
2018-04-22T06:45:13.204Z,48.10
2018-04-22T06:47:41.536Z,46.70
2018-04-22T06:50:09.089Z,46.70
2018-04-22T06:52:36.655Z,47.60
2018-04-22T06:55:04.208Z,44.60
2018-04-22T06:57:31.784Z,43.90
2018-04-22T06:59:59.337Z,46.70
2018-04-22T07:02:26.908Z,44.40
2018-04-22T07:04:54.456Z,42.50
2018-04-22T07:07:22.023Z,41.30
2018-04-22T07:09:49.568Z,41.70
2018-04-22T07:12:17.136Z,42.90
2018-04-22T07:14:46.185Z,38.30
2018-04-22T07:17:13.758Z,38.20
2018-04-22T07:19:41.301Z,41.10
2018-04-22T07:22:08.868Z,39.20
2018-04-22T07:24:36.423Z,40.10
2018-04-22T07:27:03.994Z,37.30
2018-04-22T07:29:31.539Z,37.80
2018-04-22T07:31:59.113Z,37.70
2018-04-22T07:34:26.662Z,36.00
2018-04-22T07:36:54.238Z,35.20
2018-04-22T07:39:21.780Z,34.70
2018-04-22T07:41:49.349Z,35.20
2018-04-22T07:44:16.892Z,36.60
2018-04-22T07:46:44.462Z,36.90
2018-04-22T07:49:12.015Z,33.60
2018-04-22T07:51:39.585Z,34.00
2018-04-22T07:54:07.132Z,33.10
2018-04-22T07:56:34.672Z,33.80
2018-04-22T07:59:02.237Z,35.40
2018-04-22T08:01:29.780Z,33.30
2018-04-22T08:03:58.124Z,31.00
2018-04-22T08:06:25.667Z,31.10
2018-04-22T08:08:53.232Z,28.40
2018-04-22T08:11:20.772Z,30.00
2018-04-22T08:13:48.341Z,29.50
2018-04-22T08:16:15.904Z,32.00
2018-04-22T08:18:43.480Z,31.40
2018-04-22T08:21:11.026Z,30.80
2018-04-22T08:23:38.608Z,27.60
2018-04-22T08:26:06.156Z,28.00
2018-04-22T08:28:33.728Z,26.10
2018-04-22T08:31:01.284Z,28.90
2018-04-22T08:33:28.852Z,27.40
2018-04-22T08:35:57.159Z,26.60
2018-04-22T08:38:25.033Z,26.60
2018-04-22T08:40:52.576Z,25.50
2018-04-22T08:43:20.153Z,27.50
2018-04-22T08:45:47.701Z,25.40
2018-04-22T08:48:15.266Z,28.00
2018-04-22T08:50:42.869Z,27.40
2018-04-22T08:53:10.396Z,25.40
2018-04-22T08:55:37.963Z,28.10
2018-04-22T08:58:06.282Z,27.30
2018-04-22T09:00:33.845Z,27.40
2018-04-22T09:03:01.389Z,25.30
2018-04-22T09:05:28.959Z,28.00
2018-04-22T09:07:57.268Z,27.20
2018-04-22T09:10:24.837Z,27.00
2018-04-22T09:12:52.383Z,25.80
2018-04-22T09:15:19.948Z,27.20
2018-04-22T09:17:47.491Z,26.20
2018-04-22T09:20:15.062Z,25.60
2018-04-22T09:22:42.609Z,25.60
2018-04-22T09:25:10.949Z,25.50
2018-04-22T09:27:38.497Z,25.20
2018-04-22T09:30:06.065Z,26.50
2018-04-22T09:32:33.604Z,25.10
2018-04-22T09:35:01.177Z,24.50
2018-04-22T09:37:28.729Z,25.40
2018-04-22T09:39:56.300Z,24.80
2018-04-22T09:42:23.837Z,24.10
2018-04-22T09:44:51.404Z,25.10
2018-04-22T09:47:18.948Z,22.80
2018-04-22T09:49:46.512Z,23.20
2018-04-22T09:52:14.052Z,25.30
2018-04-22T09:54:41.620Z,25.50
2018-04-22T09:57:09.168Z,23.50
2018-04-22T09:59:36.715Z,23.90
2018-04-22T10:02:04.285Z,25.40
2018-04-22T10:04:37.556Z,22.70
2018-04-22T10:07:05.133Z,24.00
2018-04-22T10:09:32.686Z,23.80
2018-04-22T10:12:00.252Z,25.40
2018-04-22T10:14:27.794Z,23.50
2018-04-22T10:16:55.374Z,22.60
2018-04-22T10:19:22.929Z,23.50
2018-04-22T10:21:50.500Z,23.50
2018-04-22T10:24:18.121Z,24.50
2018-04-22T10:26:45.696Z,24.40
2018-04-22T10:29:13.245Z,23.10
2018-04-22T10:31:40.818Z,23.30
2018-04-22T10:34:08.358Z,22.50
2018-04-22T10:36:35.923Z,21.10
2018-04-22T10:39:03.475Z,22.10
2018-04-22T10:41:31.043Z,23.20
2018-04-22T10:43:58.584Z,23.40
2018-04-22T10:46:26.159Z,22.70
2018-04-22T10:48:53.704Z,23.00
2018-04-22T10:51:22.049Z,24.40
2018-04-22T10:53:49.588Z,24.40
2018-04-22T10:56:17.165Z,23.00
2018-04-22T10:58:44.708Z,23.50
2018-04-22T11:01:12.277Z,24.10
2018-04-22T11:03:39.820Z,24.10
2018-04-22T11:06:07.396Z,23.40
2018-04-22T11:08:34.959Z,24.00
2018-04-22T11:11:02.529Z,25.30
2018-04-22T11:13:30.078Z,25.60
2018-04-22T11:15:57.649Z,25.70
2018-04-22T11:18:25.196Z,25.90
2018-04-22T11:20:52.741Z,25.40
2018-04-22T11:23:20.308Z,24.60
2018-04-22T11:25:47.845Z,25.50
2018-04-22T11:28:15.408Z,25.80
2018-04-22T11:30:42.960Z,25.50
2018-04-22T11:33:10.524Z,25.60
2018-04-22T11:35:38.065Z,26.70
2018-04-22T11:38:05.636Z,25.60
2018-04-22T11:40:33.177Z,25.00
2018-04-22T11:43:00.749Z,24.60
2018-04-22T11:45:28.293Z,26.10
2018-04-22T11:47:55.860Z,25.60
2018-04-22T11:50:23.396Z,25.50
2018-04-22T11:52:50.967Z,26.70
2018-04-22T11:55:18.535Z,26.40
2018-04-22T11:57:46.113Z,25.50
2018-04-22T12:00:13.661Z,25.40
2018-04-22T12:02:41.227Z,24.30
2018-04-22T12:05:09.534Z,26.30
2018-04-22T12:07:37.106Z,26.20
2018-04-22T12:10:04.653Z,25.50
2018-04-22T12:12:32.220Z,26.50
2018-04-22T12:15:00.530Z,26.60
2018-04-22T12:17:28.095Z,26.60
2018-04-22T12:19:55.637Z,26.70
2018-04-22T12:22:23.203Z,26.70
2018-04-22T12:24:50.750Z,26.80
2018-04-22T12:27:18.312Z,27.60
2018-04-22T12:29:45.856Z,27.40
2018-04-22T12:32:14.199Z,27.50
2018-04-22T12:34:41.746Z,27.50
2018-04-22T12:37:09.316Z,27.70
2018-04-22T12:39:37.662Z,27.60
2018-04-22T12:42:05.241Z,28.10
2018-04-22T12:44:32.784Z,27.10
2018-04-22T12:47:00.325Z,27.10
2018-04-22T12:49:27.896Z,27.10
2018-04-22T12:51:55.444Z,26.50
2018-04-22T12:54:23.016Z,27.80
2018-04-22T12:56:50.566Z,26.10
2018-04-22T12:59:18.160Z,26.30
2018-04-22T13:01:45.700Z,27.60
2018-04-22T13:04:13.270Z,27.20
2018-04-22T13:06:40.988Z,27.00
2018-04-22T13:09:08.570Z,27.20
2018-04-22T13:11:36.113Z,25.80
2018-04-22T13:14:03.699Z,26.80
2018-04-22T13:16:31.252Z,28.00
2018-04-22T13:18:58.982Z,27.40
2018-04-22T13:21:27.293Z,26.90
2018-04-22T13:23:54.858Z,26.90
2018-04-22T13:26:22.402Z,27.40
2018-04-22T13:28:49.969Z,27.20
2018-04-22T13:31:17.520Z,27.20
2018-04-22T13:33:45.096Z,27.20
2018-04-22T13:36:12.644Z,27.70
2018-04-22T13:38:40.211Z,26.90
2018-04-22T13:41:07.752Z,27.10
2018-04-22T13:43:35.332Z,27.10
2018-04-22T13:46:02.878Z,27.40
2018-04-22T13:48:30.420Z,27.60
2018-04-22T13:50:57.984Z,27.90
2018-04-22T13:53:25.529Z,27.80
2018-04-22T13:55:54.596Z,26.60
2018-04-22T13:58:22.151Z,26.50
2018-04-22T14:00:49.723Z,26.90
2018-04-22T14:03:18.034Z,27.30
2018-04-22T14:05:45.705Z,27.30
2018-04-22T14:08:13.248Z,27.20
2018-04-22T14:10:40.820Z,27.40
2018-04-22T14:13:08.364Z,26.40
2018-04-22T14:15:35.933Z,27.00
2018-04-22T14:18:03.484Z,26.00
2018-04-22T14:20:31.053Z,27.30
2018-04-22T14:22:58.600Z,27.50
2018-04-22T14:25:26.213Z,26.60
2018-04-22T14:27:53.740Z,26.60
2018-04-22T14:30:21.308Z,25.70
2018-04-22T14:32:48.860Z,27.20
2018-04-22T14:35:16.428Z,27.20
2018-04-22T14:37:44.253Z,27.50
2018-04-22T14:40:11.826Z,25.60
2018-04-22T14:42:39.372Z,26.80
2018-04-22T14:45:18.789Z,26.30
2018-04-22T14:47:46.344Z,26.90
2018-04-22T14:50:13.912Z,26.50
2018-04-22T14:52:42.224Z,27.50
2018-04-22T14:55:09.792Z,27.50
2018-04-22T14:57:37.333Z,27.50
2018-04-22T15:00:04.891Z,27.60
2018-04-22T15:02:32.457Z,27.50
2018-04-22T15:05:00.012Z,27.80
2018-04-22T15:07:27.581Z,27.70
2018-04-22T15:09:55.128Z,27.90
2018-04-22T15:12:22.697Z,28.30
2018-04-22T15:14:50.235Z,27.70
2018-04-22T15:17:17.800Z,27.50
2018-04-22T15:19:45.344Z,28.10
2018-04-22T15:22:12.978Z,28.10
2018-04-22T15:24:40.497Z,27.90
2018-04-22T15:27:08.066Z,28.70
2018-04-22T15:29:36.396Z,27.90
2018-04-22T15:32:05.331Z,28.10
2018-04-22T15:34:32.871Z,28.10
2018-04-22T15:37:00.436Z,27.90
2018-04-22T15:39:27.985Z,28.30
2018-04-22T15:41:55.559Z,28.50
2018-04-22T15:44:23.102Z,28.80
2018-04-22T15:46:50.668Z,29.20
2018-04-22T15:49:18.207Z,29.10
2018-04-22T15:51:45.779Z,29.00
2018-04-22T15:54:13.348Z,29.20
2018-04-22T15:56:40.919Z,29.10
2018-04-22T15:59:08.464Z,29.30
2018-04-22T16:01:36.033Z,29.30
2018-04-22T16:04:03.581Z,29.20
2018-04-22T16:06:31.157Z,29.10
2018-04-22T16:08:58.702Z,29.20
2018-04-22T16:11:26.244Z,29.60
2018-04-22T16:13:53.813Z,29.60
2018-04-22T16:16:21.356Z,29.30
2018-04-22T16:18:48.921Z,29.50
2018-04-22T16:21:17.650Z,29.70
2018-04-22T16:23:45.169Z,30.90
2018-04-22T16:26:12.708Z,31.10
2018-04-22T16:28:40.279Z,32.60
2018-04-22T16:31:07.825Z,31.60
2018-04-22T16:33:35.402Z,32.70
2018-04-22T16:36:02.949Z,32.00
2018-04-22T16:38:30.516Z,32.20
2018-04-22T16:40:58.066Z,31.50
2018-04-22T16:43:25.638Z,32.50
2018-04-22T16:45:53.176Z,32.20
2018-04-22T16:48:20.744Z,31.70
2018-04-22T16:50:48.284Z,31.40
2018-04-22T16:53:16.614Z,31.50
2018-04-22T16:55:44.176Z,31.50
2018-04-22T16:58:11.743Z,33.20
2018-04-22T17:00:39.290Z,34.20
2018-04-22T17:03:08.336Z,34.80
2018-04-22T17:05:37.456Z,36.80
2018-04-22T17:08:05.021Z,36.90
2018-04-22T17:10:32.564Z,37.90
2018-04-22T17:13:00.128Z,37.90
2018-04-22T17:15:28.669Z,37.40
2018-04-22T17:17:57.306Z,38.20
2018-04-22T17:20:25.904Z,38.30
2018-04-22T17:22:56.184Z,40.30
2018-04-22T17:25:23.772Z,40.10
2018-04-22T17:27:51.312Z,38.30
2018-04-22T17:30:18.877Z,39.70
2018-04-22T17:32:46.416Z,41.00
2018-04-22T17:35:14.752Z,42.60
2018-04-22T17:37:42.292Z,41.80
2018-04-22T17:40:12.325Z,41.30
2018-04-22T17:42:39.896Z,41.10
2018-04-22T17:45:08.243Z,42.00
2018-04-22T17:47:35.788Z,41.60
2018-04-22T17:50:03.760Z,40.60
2018-04-22T17:52:33.360Z,40.50
2018-04-22T17:55:03.283Z,42.00
2018-04-22T17:57:32.293Z,42.30
2018-04-22T18:00:02.553Z,42.00
2018-04-22T18:02:33.081Z,41.10
2018-04-22T18:05:09.996Z,41.50
2018-04-22T18:07:38.769Z,41.00
2018-04-22T18:10:07.679Z,41.00
2018-04-22T18:12:36.349Z,42.20
2018-04-22T18:15:04.027Z,42.60
2018-04-22T18:17:32.528Z,40.30
2018-04-22T18:20:03.957Z,42.20
2018-04-22T18:22:32.625Z,41.10
2018-04-22T18:25:02.765Z,42.70
2018-04-22T18:27:34.364Z,41.30
2018-04-22T18:30:02.004Z,42.40
2018-04-22T18:32:29.565Z,41.90
2018-04-22T18:34:57.187Z,41.60
2018-04-22T18:37:24.961Z,42.60
2018-04-22T18:39:53.672Z,42.50
2018-04-22T18:42:21.507Z,42.10
2018-04-22T18:44:49.049Z,42.30
2018-04-22T18:47:16.624Z,41.30
2018-04-22T18:49:44.164Z,41.20
2018-04-22T18:52:11.733Z,41.30
2018-04-22T18:54:40.387Z,40.80
2018-04-22T18:57:09.038Z,42.30
2018-04-22T18:59:36.898Z,41.00
2018-04-22T19:02:04.770Z,41.90
2018-04-22T19:04:33.369Z,42.90
2018-04-22T19:07:01.430Z,42.90
2018-04-22T19:09:30.016Z,43.30
2018-04-22T19:11:58.757Z,42.20
2018-04-22T19:14:29.502Z,42.00
2018-04-22T19:16:57.433Z,44.70
2018-04-22T19:19:26.132Z,41.90
2018-04-22T19:21:54.524Z,43.60
2018-04-22T19:24:22.834Z,43.00
2018-04-22T19:26:50.707Z,42.90
2018-04-22T19:29:19.409Z,43.00
2018-04-22T19:31:47.381Z,42.90
2018-04-22T19:34:15.600Z,43.00
2018-04-22T19:36:43.631Z,42.80
2018-04-22T19:39:11.525Z,44.20
2018-04-22T19:41:39.694Z,43.00
2018-04-22T19:44:07.508Z,44.90
2018-04-22T19:46:36.225Z,44.80
2018-04-22T19:49:04.144Z,44.70
2018-04-22T19:51:32.174Z,45.20
2018-04-22T19:53:59.997Z,44.10
2018-04-22T19:56:27.903Z,43.30
2018-04-22T19:58:55.742Z,43.40
2018-04-22T20:01:23.558Z,42.40
2018-04-22T20:03:51.515Z,43.10
2018-04-22T20:06:19.491Z,44.20
2018-04-22T20:08:47.441Z,43.70
2018-04-22T20:11:15.727Z,43.00
2018-04-22T20:13:43.619Z,44.90
2018-04-22T20:16:11.526Z,46.10
2018-04-22T20:18:39.576Z,44.50
2018-04-22T20:21:08.289Z,43.40
2018-04-22T20:23:36.353Z,43.70
2018-04-22T20:26:04.184Z,46.00
2018-04-22T20:28:32.143Z,45.80
2018-04-22T20:31:00.111Z,44.10
2018-04-22T20:33:28.369Z,46.70
2018-04-22T20:35:56.284Z,44.10
2018-04-22T20:38:24.121Z,46.70
2018-04-22T20:40:52.075Z,45.20
2018-04-22T20:43:20.043Z,44.50
2018-04-22T20:45:47.983Z,43.30
2018-04-22T20:48:15.887Z,44.90
2018-04-22T20:50:43.689Z,45.80
2018-04-22T20:53:11.866Z,44.00
2018-04-22T20:55:39.850Z,43.90
2018-04-22T20:58:07.803Z,44.70
2018-04-22T21:00:35.759Z,44.70
2018-04-22T21:03:03.530Z,45.50
2018-04-22T21:05:31.419Z,44.80
2018-04-22T21:07:59.439Z,44.00
2018-04-22T21:10:27.343Z,44.70
2018-04-22T21:12:55.330Z,45.40
2018-04-22T21:15:23.208Z,44.50
2018-04-22T21:17:51.088Z,44.80
2018-04-22T21:20:19.137Z,43.50
2018-04-22T21:22:46.918Z,44.00
2018-04-22T21:25:14.966Z,44.80
2018-04-22T21:27:42.806Z,44.70
2018-04-22T21:30:11.498Z,44.00
2018-04-22T21:32:39.379Z,44.00
2018-04-22T21:35:07.249Z,43.80
2018-04-22T21:37:35.188Z,46.10
2018-04-22T21:40:03.189Z,45.60
2018-04-22T21:42:31.099Z,45.80
2018-04-22T21:44:59.144Z,44.50
2018-04-22T21:47:26.957Z,43.70
2018-04-22T21:49:54.960Z,44.00
2018-04-22T21:52:22.818Z,44.50
2018-04-22T21:54:50.749Z,45.50
2018-04-22T21:57:19.495Z,44.40
2018-04-22T21:59:47.348Z,44.50
2018-04-22T22:02:15.309Z,44.00
2018-04-22T22:04:43.297Z,43.00
2018-04-22T22:07:11.243Z,45.40
2018-04-22T22:09:39.306Z,45.30
2018-04-22T22:12:07.137Z,46.20
2018-04-22T22:14:35.080Z,45.00
2018-04-22T22:17:02.935Z,45.70
2018-04-22T22:19:30.861Z,45.00
2018-04-22T22:21:58.738Z,45.80
2018-04-22T22:24:26.538Z,44.60
2018-04-22T22:26:54.509Z,43.90
2018-04-22T22:29:22.397Z,45.40
2018-04-22T22:31:50.333Z,43.80
2018-04-22T22:34:18.251Z,46.10
2018-04-22T22:36:46.877Z,48.30
2018-04-22T22:39:14.806Z,48.40
2018-04-22T22:41:43.543Z,45.50
2018-04-22T22:44:11.456Z,45.50
2018-04-22T22:46:40.385Z,45.60
2018-04-22T22:49:08.205Z,46.20
2018-04-22T22:51:37.564Z,48.40
2018-04-22T22:54:06.187Z,45.20
2018-04-22T22:56:34.850Z,48.30
2018-04-22T22:59:02.715Z,48.10
2018-04-22T23:01:30.657Z,47.20
2018-04-22T23:03:58.543Z,48.80
2018-04-22T23:06:26.474Z,47.00
2018-04-22T23:08:54.536Z,45.90
2018-04-22T23:11:22.593Z,45.90
2018-04-22T23:13:50.539Z,47.50
2018-04-22T23:16:18.541Z,47.80
2018-04-22T23:18:46.335Z,47.90
2018-04-22T23:21:14.246Z,47.90
2018-04-22T23:23:42.134Z,49.80
2018-04-22T23:26:10.061Z,49.40
2018-04-22T23:28:37.949Z,48.80
2018-04-22T23:31:06.604Z,48.40
2018-04-22T23:33:34.562Z,48.40
2018-04-22T23:36:02.541Z,47.90
2018-04-22T23:38:30.478Z,48.30
2018-04-22T23:40:58.428Z,47.90
2018-04-22T23:43:27.036Z,46.90
2018-04-22T23:45:55.710Z,47.00
2018-04-22T23:48:23.645Z,45.80
2018-04-22T23:50:51.514Z,48.60
2018-04-22T23:53:20.277Z,47.30
2018-04-22T23:55:48.152Z,47.30
2018-04-22T23:58:16.146Z,48.10
